sensor_id;sensor_type;location;lat;lon;timestamp;pressure;altitude;pressure_sealevel;temperature;humidity
40117;BME280;25829;50.228;18.936;2023-03-26T00:01:51;97600.63;;;7.80;59.96
40117;BME280;25829;50.228;18.936;2023-03-26T00:04:52;97606.06;;;7.79;60.64
40117;BME280;25829;50.228;18.936;2023-03-26T00:07:52;97604.03;;;7.81;60.08
40117;BME280;25829;50.228;18.936;2023-03-26T00:10:53;97614.94;;;7.84;60.23
40117;BME280;25829;50.228;18.936;2023-03-26T00:13:55;97620.78;;;7.86;60.40
40117;BME280;25829;50.228;18.936;2023-03-26T00:16:59;97650.88;;;7.84;60.64
40117;BME280;25829;50.228;18.936;2023-03-26T00:19:59;97644.44;;;7.80;61.53
40117;BME280;25829;50.228;18.936;2023-03-26T00:23:00;97628.31;;;7.76;62.28
40117;BME280;25829;50.228;18.936;2023-03-26T00:26:02;97612.56;;;7.76;63.02
40117;BME280;25829;50.228;18.936;2023-03-26T00:29:03;97608.72;;;7.72;63.71
40117;BME280;25829;50.228;18.936;2023-03-26T00:32:06;97605.09;;;7.66;64.83
40117;BME280;25829;50.228;18.936;2023-03-26T00:35:07;97603.31;;;7.60;64.67
40117;BME280;25829;50.228;18.936;2023-03-26T00:38:08;97602.34;;;7.55;65.39
40117;BME280;25829;50.228;18.936;2023-03-26T00:41:12;97600.13;;;7.52;65.25
40117;BME280;25829;50.228;18.936;2023-03-26T00:44:26;97594.09;;;7.44;65.88
40117;BME280;25829;50.228;18.936;2023-03-26T00:47:27;97590.91;;;7.36;65.90
40117;BME280;25829;50.228;18.936;2023-03-26T00:50:28;97590.13;;;7.29;66.28
40117;BME280;25829;50.228;18.936;2023-03-26T00:53:29;97582.50;;;7.20;66.78
40117;BME280;25829;50.228;18.936;2023-03-26T00:56:30;97576.25;;;7.08;67.22
40117;BME280;25829;50.228;18.936;2023-03-26T00:59:31;97575.69;;;6.99;67.04
40117;BME280;25829;50.228;18.936;2023-03-26T01:02:35;97570.66;;;6.91;67.39
40117;BME280;25829;50.228;18.936;2023-03-26T01:05:45;97572.50;;;6.84;67.18
40117;BME280;25829;50.228;18.936;2023-03-26T01:08:49;97570.50;;;6.79;67.11
40117;BME280;25829;50.228;18.936;2023-03-26T01:11:50;97565.88;;;6.75;67.33
40117;BME280;25829;50.228;18.936;2023-03-26T01:14:54;97569.31;;;6.69;67.25
40117;BME280;25829;50.228;18.936;2023-03-26T01:17:56;97566.47;;;6.64;66.78
40117;BME280;25829;50.228;18.936;2023-03-26T01:20:57;97560.03;;;6.60;67.12
40117;BME280;25829;50.228;18.936;2023-03-26T01:24:06;97559.44;;;6.58;67.00
40117;BME280;25829;50.228;18.936;2023-03-26T01:27:09;97567.72;;;6.54;67.05
40117;BME280;25829;50.228;18.936;2023-03-26T01:30:27;97568.13;;;6.51;67.38
40117;BME280;25829;50.228;18.936;2023-03-26T01:33:41;97559.25;;;6.46;66.86
40117;BME280;25829;50.228;18.936;2023-03-26T01:37:19;97558.03;;;6.42;66.97
40117;BME280;25829;50.228;18.936;2023-03-26T01:40:35;97557.25;;;6.35;67.07
40117;BME280;25829;50.228;18.936;2023-03-26T01:43:53;97554.63;;;6.28;66.71
40117;BME280;25829;50.228;18.936;2023-03-26T01:46:55;97556.03;;;6.24;66.71
40117;BME280;25829;50.228;18.936;2023-03-26T01:49:58;97552.22;;;6.20;66.63
40117;BME280;25829;50.228;18.936;2023-03-26T01:52:59;97551.19;;;6.21;66.35
40117;BME280;25829;50.228;18.936;2023-03-26T02:03:29;97545.97;;;6.21;66.44
40117;BME280;25829;50.228;18.936;2023-03-26T02:06:41;97549.59;;;6.20;66.12
40117;BME280;25829;50.228;18.936;2023-03-26T02:09:47;97545.75;;;6.22;65.70
40117;BME280;25829;50.228;18.936;2023-03-26T02:12:49;97550.19;;;6.28;66.35
40117;BME280;25829;50.228;18.936;2023-03-26T02:15:59;97552.00;;;6.35;65.79
40117;BME280;25829;50.228;18.936;2023-03-26T02:19:01;97546.56;;;6.36;65.81
40117;BME280;25829;50.228;18.936;2023-03-26T02:22:02;97551.78;;;6.43;65.81
40117;BME280;25829;50.228;18.936;2023-03-26T02:25:07;97546.53;;;6.49;66.00
40117;BME280;25829;50.228;18.936;2023-03-26T02:28:09;97549.97;;;6.57;65.60
40117;BME280;25829;50.228;18.936;2023-03-26T02:31:10;97556.41;;;6.61;65.86
40117;BME280;25829;50.228;18.936;2023-03-26T02:34:14;97551.94;;;6.68;65.23
40117;BME280;25829;50.228;18.936;2023-03-26T02:37:22;97551.94;;;6.68;64.97
40117;BME280;25829;50.228;18.936;2023-03-26T02:40:33;97544.31;;;6.66;65.59
40117;BME280;25829;50.228;18.936;2023-03-26T02:43:34;97544.50;;;6.71;65.78
40117;BME280;25829;50.228;18.936;2023-03-26T02:46:36;97546.69;;;6.74;65.35
40117;BME280;25829;50.228;18.936;2023-03-26T02:50:07;97546.91;;;6.79;65.48
40117;BME280;25829;50.228;18.936;2023-03-26T02:53:23;97518.06;;;6.79;65.14
40117;BME280;25829;50.228;18.936;2023-03-26T02:56:44;97522.28;;;6.81;64.79
40117;BME280;25829;50.228;18.936;2023-03-26T02:59:59;97516.88;;;6.75;64.76
40117;BME280;25829;50.228;18.936;2023-03-26T03:03:12;97519.09;;;6.72;64.72
40117;BME280;25829;50.228;18.936;2023-03-26T03:06:31;97520.69;;;6.73;65.26
40117;BME280;25829;50.228;18.936;2023-03-26T03:09:33;97526.56;;;6.75;64.98
40117;BME280;25829;50.228;18.936;2023-03-26T03:12:53;97521.91;;;6.77;64.42
40117;BME280;25829;50.228;18.936;2023-03-26T03:15:54;97529.19;;;6.75;64.30
40117;BME280;25829;50.228;18.936;2023-03-26T03:18:55;97523.31;;;6.73;64.70
40117;BME280;25829;50.228;18.936;2023-03-26T03:21:59;97523.53;;;6.71;64.61
40117;BME280;25829;50.228;18.936;2023-03-26T03:25:00;97528.78;;;6.71;64.24
40117;BME280;25829;50.228;18.936;2023-03-26T03:28:01;97518.72;;;6.68;64.16
40117;BME280;25829;50.228;18.936;2023-03-26T03:31:02;97502.56;;;6.71;64.58
40117;BME280;25829;50.228;18.936;2023-03-26T03:34:06;97512.25;;;6.64;63.70
40117;BME280;25829;50.228;18.936;2023-03-26T03:37:11;97513.28;;;6.57;64.02
40117;BME280;25829;50.228;18.936;2023-03-26T03:40:24;97528.19;;;6.56;64.17
40117;BME280;25829;50.228;18.936;2023-03-26T03:43:26;97522.16;;;6.55;63.75
40117;BME280;25829;50.228;18.936;2023-03-26T03:46:41;97533.25;;;6.58;64.43
40117;BME280;25829;50.228;18.936;2023-03-26T03:49:41;97535.25;;;6.55;63.87
40117;BME280;25829;50.228;18.936;2023-03-26T03:52:42;97532.63;;;6.55;64.17
40117;BME280;25829;50.228;18.936;2023-03-26T03:55:44;97536.47;;;6.53;64.37
40117;BME280;25829;50.228;18.936;2023-03-26T03:58:53;97544.72;;;6.57;63.72
40117;BME280;25829;50.228;18.936;2023-03-26T04:02:03;97536.25;;;6.61;64.24
40117;BME280;25829;50.228;18.936;2023-03-26T04:05:14;97538.25;;;6.66;64.69
40117;BME280;25829;50.228;18.936;2023-03-26T04:08:21;97529.78;;;6.70;64.53
40117;BME280;25829;50.228;18.936;2023-03-26T04:11:26;97534.41;;;6.75;64.30
40117;BME280;25829;50.228;18.936;2023-03-26T04:14:59;97530.56;;;6.77;64.62
40117;BME280;25829;50.228;18.936;2023-03-26T04:18:00;97528.75;;;6.78;64.24
40117;BME280;25829;50.228;18.936;2023-03-26T04:21:01;97522.91;;;6.76;64.42
40117;BME280;25829;50.228;18.936;2023-03-26T04:24:04;97526.56;;;6.75;64.53
40117;BME280;25829;50.228;18.936;2023-03-26T04:27:28;97515.69;;;6.71;64.30
40117;BME280;25829;50.228;18.936;2023-03-26T04:30:43;97520.69;;;6.73;64.49
40117;BME280;25829;50.228;18.936;2023-03-26T04:34:19;97516.06;;;6.75;64.31
40117;BME280;25829;50.228;18.936;2023-03-26T04:37:38;97528.16;;;6.76;63.90
40117;BME280;25829;50.228;18.936;2023-03-26T04:41:11;97529.34;;;6.80;64.09
40117;BME280;25829;50.228;18.936;2023-03-26T04:44:32;97527.75;;;6.79;63.71
40117;BME280;25829;50.228;18.936;2023-03-26T04:47:39;97521.47;;;6.80;64.37
40117;BME280;25829;50.228;18.936;2023-03-26T04:50:42;97529.56;;;6.78;64.02
40117;BME280;25829;50.228;18.936;2023-03-26T04:53:50;97536.41;;;6.79;63.96
40117;BME280;25829;50.228;18.936;2023-03-26T04:57:21;97524.91;;;6.81;64.31
40117;BME280;25829;50.228;18.936;2023-03-26T05:00:32;97522.69;;;6.77;63.34
40117;BME280;25829;50.228;18.936;2023-03-26T05:03:33;97522.69;;;6.77;63.53
40117;BME280;25829;50.228;18.936;2023-03-26T05:06:41;97511.00;;;6.80;63.44
40117;BME280;25829;50.228;18.936;2023-03-26T05:09:52;97517.03;;;6.81;62.98
40117;BME280;25829;50.228;18.936;2023-03-26T05:12:57;97518.88;;;6.80;63.20
40117;BME280;25829;50.228;18.936;2023-03-26T05:16:05;97521.47;;;6.80;63.18
40117;BME280;25829;50.228;18.936;2023-03-26T05:19:25;97508.78;;;6.77;63.14
40117;BME280;25829;50.228;18.936;2023-03-26T05:22:27;97521.72;;;6.78;63.51
40117;BME280;25829;50.228;18.936;2023-03-26T05:25:57;97530.94;;;6.81;62.75
40117;BME280;25829;50.228;18.936;2023-03-26T05:28:59;97531.16;;;6.86;62.63
40117;BME280;25829;50.228;18.936;2023-03-26T05:32:08;97527.09;;;6.90;63.08
40117;BME280;25829;50.228;18.936;2023-03-26T05:35:10;97523.47;;;6.91;62.49
40117;BME280;25829;50.228;18.936;2023-03-26T05:38:12;97521.63;;;6.92;62.49
40117;BME280;25829;50.228;18.936;2023-03-26T05:41:13;97527.28;;;6.95;62.68
40117;BME280;25829;50.228;18.936;2023-03-26T05:44:16;97518.81;;;7.00;62.67
40117;BME280;25829;50.228;18.936;2023-03-26T05:47:18;97523.63;;;7.03;62.21
40117;BME280;25829;50.228;18.936;2023-03-26T05:50:19;97528.03;;;7.09;62.46
40117;BME280;25829;50.228;18.936;2023-03-26T05:53:22;97527.84;;;7.11;62.00
40117;BME280;25829;50.228;18.936;2023-03-26T05:56:41;97540.13;;;7.17;62.19
40117;BME280;25829;50.228;18.936;2023-03-26T05:59:45;97535.84;;;7.22;61.91
40117;BME280;25829;50.228;18.936;2023-03-26T06:02:52;97538.84;;;7.26;61.97
40117;BME280;25829;50.228;18.936;2023-03-26T06:06:18;97546.50;;;7.34;62.25
40117;BME280;25829;50.228;18.936;2023-03-26T06:09:27;97537.78;;;7.40;61.84
40117;BME280;25829;50.228;18.936;2023-03-26T06:12:29;97534.34;;;7.40;61.09
40117;BME280;25829;50.228;18.936;2023-03-26T06:15:32;97533.78;;;7.38;60.81
40117;BME280;25829;50.228;18.936;2023-03-26T06:18:39;97533.56;;;7.39;60.77
40117;BME280;25829;50.228;18.936;2023-03-26T06:21:57;97547.44;;;7.46;61.22
40117;BME280;25829;50.228;18.936;2023-03-26T06:25:04;97536.88;;;7.60;61.26
40117;BME280;25829;50.228;18.936;2023-03-26T06:28:28;97537.22;;;7.77;61.07
40117;BME280;25829;50.228;18.936;2023-03-26T06:31:50;97530.84;;;7.91;60.44
40117;BME280;25829;50.228;18.936;2023-03-26T06:34:54;97536.66;;;8.00;60.66
40117;BME280;25829;50.228;18.936;2023-03-26T06:37:55;97537.19;;;8.08;59.91
40117;BME280;25829;50.228;18.936;2023-03-26T06:41:06;97542.69;;;8.07;59.75
40117;BME280;25829;50.228;18.936;2023-03-26T06:44:25;97538.28;;;8.01;59.70
40117;BME280;25829;50.228;18.936;2023-03-26T06:47:46;97538.47;;;7.99;59.55
40117;BME280;25829;50.228;18.936;2023-03-26T06:51:16;97541.09;;;7.99;59.50
40117;BME280;25829;50.228;18.936;2023-03-26T06:54:52;97546.94;;;8.01;59.77
40117;BME280;25829;50.228;18.936;2023-03-26T06:58:12;97538.84;;;8.03;59.38
40117;BME280;25829;50.228;18.936;2023-03-26T07:01:31;97532.22;;;8.00;59.40
40117;BME280;25829;50.228;18.936;2023-03-26T07:05:11;97546.16;;;8.01;59.55
40117;BME280;25829;50.228;18.936;2023-03-26T07:08:30;97544.94;;;8.03;59.31
40117;BME280;25829;50.228;18.936;2023-03-26T07:11:50;97542.06;;;8.05;59.24
40117;BME280;25829;50.228;18.936;2023-03-26T07:15:13;97547.31;;;8.05;59.53
40117;BME280;25829;50.228;18.936;2023-03-26T07:18:35;97550.34;;;8.08;59.75
40117;BME280;25829;50.228;18.936;2023-03-26T07:21:37;97540.19;;;8.12;59.00
40117;BME280;25829;50.228;18.936;2023-03-26T07:24:54;97544.59;;;8.18;59.66
40117;BME280;25829;50.228;18.936;2023-03-26T07:35:49;97545.56;;;8.24;58.75
40117;BME280;25829;50.228;18.936;2023-03-26T07:46:43;97552.53;;;8.36;59.37
40117;BME280;25829;50.228;18.936;2023-03-26T07:49:56;97559.69;;;8.48;59.13
40117;BME280;25829;50.228;18.936;2023-03-26T07:53:28;97548.94;;;8.56;58.44
40117;BME280;25829;50.228;18.936;2023-03-26T07:56:54;97546.00;;;8.64;58.25
40117;BME280;25829;50.228;18.936;2023-03-26T08:00:24;97538.13;;;8.82;58.49
40117;BME280;25829;50.228;18.936;2023-03-26T08:03:47;97543.34;;;9.07;58.46
40117;BME280;25829;50.228;18.936;2023-03-26T08:07:51;97547.22;;;9.42;56.67
40117;BME280;25829;50.228;18.936;2023-03-26T08:14:19;97547.94;;;9.91;56.88
40117;BME280;25829;50.228;18.936;2023-03-26T08:18:19;97549.56;;;10.03;56.19
40117;BME280;25829;50.228;18.936;2023-03-26T08:21:03;97552.69;;;10.12;56.07
40117;BME280;25829;50.228;18.936;2023-03-26T08:24:41;97547.97;;;10.14;55.51
40117;BME280;25829;50.228;18.936;2023-03-26T08:34:11;97540.22;;;10.19;55.50
40117;BME280;25829;50.228;18.936;2023-03-26T08:37:12;97540.56;;;10.23;55.29
40117;BME280;25829;50.228;18.936;2023-03-26T08:40:45;97529.31;;;10.27;54.69
40117;BME280;25829;50.228;18.936;2023-03-26T08:47:15;97536.66;;;10.49;55.43
40117;BME280;25829;50.228;18.936;2023-03-26T09:18:36;97510.63;;;11.28;52.96
40117;BME280;25829;50.228;18.936;2023-03-26T09:22:18;97496.56;;;11.22;51.66
40117;BME280;25829;50.228;18.936;2023-03-26T09:42:48;97502.81;;;11.33;52.49
40117;BME280;25829;50.228;18.936;2023-03-26T09:46:04;97502.75;;;11.16;52.69
40117;BME280;25829;50.228;18.936;2023-03-26T09:56:00;97529.91;;;10.53;56.82
40117;BME280;25829;50.228;18.936;2023-03-26T09:59:20;97524.59;;;10.18;58.05
40117;BME280;25829;50.228;18.936;2023-03-26T10:05:56;97520.47;;;9.86;60.01
40117;BME280;25829;50.228;18.936;2023-03-26T10:12:48;97503.19;;;9.60;61.23
40117;BME280;25829;50.228;18.936;2023-03-26T10:25:59;97497.94;;;9.72;63.05
40117;BME280;25829;50.228;18.936;2023-03-26T10:29:28;97487.47;;;9.84;62.97
40117;BME280;25829;50.228;18.936;2023-03-26T10:36:54;97484.97;;;10.36;63.54
40117;BME280;25829;50.228;18.936;2023-03-26T10:40:08;97481.16;;;10.55;62.62
40117;BME280;25829;50.228;18.936;2023-03-26T10:47:04;97476.81;;;10.85;60.48
40117;BME280;25829;50.228;18.936;2023-03-26T10:53:52;97471.59;;;11.01;58.53
40117;BME280;25829;50.228;18.936;2023-03-26T10:56:54;97474.25;;;11.01;58.57
40117;BME280;25829;50.228;18.936;2023-03-26T10:59:59;97466.88;;;11.03;58.46
40117;BME280;25829;50.228;18.936;2023-03-26T11:03:24;97454.97;;;11.01;57.79
40117;BME280;25829;50.228;18.936;2023-03-26T11:10:32;97445.06;;;11.08;57.00
40117;BME280;25829;50.228;18.936;2023-03-26T11:14:07;97441.13;;;11.22;56.62
40117;BME280;25829;50.228;18.936;2023-03-26T11:17:34;97431.78;;;11.48;56.16
40117;BME280;25829;50.228;18.936;2023-03-26T11:21:00;97422.81;;;11.66;54.20
40117;BME280;25829;50.228;18.936;2023-03-26T11:24:07;97425.41;;;11.78;55.59
40117;BME280;25829;50.228;18.936;2023-03-26T11:31:26;97418.50;;;11.94;52.77
40117;BME280;25829;50.228;18.936;2023-03-26T11:41:25;97410.72;;;11.87;51.63
40117;BME280;25829;50.228;18.936;2023-03-26T11:44:57;97413.38;;;11.87;52.07
40117;BME280;25829;50.228;18.936;2023-03-26T11:48:22;97408.75;;;11.94;52.02
40117;BME280;25829;50.228;18.936;2023-03-26T11:51:28;97406.75;;;11.85;52.38
40117;BME280;25829;50.228;18.936;2023-03-26T11:54:30;97398.66;;;11.74;51.79
40117;BME280;25829;50.228;18.936;2023-03-26T11:57:37;97409.63;;;11.66;52.60
40117;BME280;25829;50.228;18.936;2023-03-26T12:00:42;97401.78;;;11.71;52.82
40117;BME280;25829;50.228;18.936;2023-03-26T12:03:55;97388.75;;;11.82;52.37
40117;BME280;25829;50.228;18.936;2023-03-26T12:07:29;97391.06;;;11.95;52.35
40117;BME280;25829;50.228;18.936;2023-03-26T12:11:09;97384.81;;;12.01;49.85
40117;BME280;25829;50.228;18.936;2023-03-26T12:14:21;97376.78;;;11.96;50.33
40117;BME280;25829;50.228;18.936;2023-03-26T12:17:48;97370.78;;;12.00;50.11
40117;BME280;25829;50.228;18.936;2023-03-26T12:21:24;97364.31;;;12.08;50.10
40117;BME280;25829;50.228;18.936;2023-03-26T12:27:36;97360.31;;;12.06;48.73
40117;BME280;25829;50.228;18.936;2023-03-26T12:30:41;97349.88;;;11.99;48.81
40117;BME280;25829;50.228;18.936;2023-03-26T12:34:12;97360.66;;;11.97;47.67
40117;BME280;25829;50.228;18.936;2023-03-26T12:37:34;97344.59;;;11.99;47.86
40117;BME280;25829;50.228;18.936;2023-03-26T12:40:36;97339.78;;;11.96;48.00
40117;BME280;25829;50.228;18.936;2023-03-26T12:43:43;97333.41;;;11.92;47.95
40117;BME280;25829;50.228;18.936;2023-03-26T12:46:44;97330.91;;;12.02;48.11
40117;BME280;25829;50.228;18.936;2023-03-26T12:49:48;97318.94;;;12.16;48.35
40117;BME280;25829;50.228;18.936;2023-03-26T12:59:31;97314.75;;;12.42;47.45
40117;BME280;25829;50.228;18.936;2023-03-26T13:06:07;97317.47;;;12.26;48.21
40117;BME280;25829;50.228;18.936;2023-03-26T13:12:36;97314.75;;;12.20;48.61
40117;BME280;25829;50.228;18.936;2023-03-26T13:15:47;97313.38;;;12.18;48.56
40117;BME280;25829;50.228;18.936;2023-03-26T13:19:08;97316.66;;;12.25;48.44
40117;BME280;25829;50.228;18.936;2023-03-26T13:22:33;97307.06;;;12.19;47.92
40117;BME280;25829;50.228;18.936;2023-03-26T13:36:37;97288.47;;;12.36;47.51
40117;BME280;25829;50.228;18.936;2023-03-26T13:44:29;97278.28;;;12.44;48.21
40117;BME280;25829;50.228;18.936;2023-03-26T13:47:34;97291.94;;;12.36;47.91
40117;BME280;25829;50.228;18.936;2023-03-26T13:50:41;97279.88;;;12.23;47.44
40117;BME280;25829;50.228;18.936;2023-03-26T13:53:51;97275.59;;;12.17;47.82
40117;BME280;25829;50.228;18.936;2023-03-26T13:57:08;97282.97;;;12.15;48.45
40117;BME280;25829;50.228;18.936;2023-03-26T14:00:22;97273.59;;;12.08;48.63
40117;BME280;25829;50.228;18.936;2023-03-26T14:03:47;97274.09;;;12.05;49.01
40117;BME280;25829;50.228;18.936;2023-03-26T14:10:36;97276.75;;;12.05;49.28
40117;BME280;25829;50.228;18.936;2023-03-26T14:16:56;97272.75;;;12.02;48.06
40117;BME280;25829;50.228;18.936;2023-03-26T14:23:23;97248.63;;;11.98;47.70
40117;BME280;25829;50.228;18.936;2023-03-26T14:26:40;97259.44;;;11.97;47.80
40117;BME280;25829;50.228;18.936;2023-03-26T14:37:46;97246.19;;;11.92;48.38
40117;BME280;25829;50.228;18.936;2023-03-26T14:58:20;97236.28;;;11.60;46.21
40117;BME280;25829;50.228;18.936;2023-03-26T15:53:39;97205.69;;;11.64;45.92
40117;BME280;25829;50.228;18.936;2023-03-26T16:03:27;97202.94;;;11.59;45.01
40117;BME280;25829;50.228;18.936;2023-03-26T16:09:55;97192.34;;;11.54;45.22
40117;BME280;25829;50.228;18.936;2023-03-26T16:13:26;97197.34;;;11.56;45.17
40117;BME280;25829;50.228;18.936;2023-03-26T16:16:55;97183.94;;;11.57;44.84
40117;BME280;25829;50.228;18.936;2023-03-26T16:30:01;97188.59;;;11.50;45.62
40117;BME280;25829;50.228;18.936;2023-03-26T16:33:13;97188.19;;;11.41;45.65
40117;BME280;25829;50.228;18.936;2023-03-26T16:36:31;97182.59;;;11.38;45.56
40117;BME280;25829;50.228;18.936;2023-03-26T16:39:40;97178.56;;;11.30;45.94
40117;BME280;25829;50.228;18.936;2023-03-26T16:49:29;97186.56;;;11.18;46.16
40117;BME280;25829;50.228;18.936;2023-03-26T16:56:10;97184.66;;;11.14;45.92
40117;BME280;25829;50.228;18.936;2023-03-26T17:00:03;97188.81;;;11.10;45.52
40117;BME280;25829;50.228;18.936;2023-03-26T17:07:01;97183.00;;;10.91;45.81
40117;BME280;25829;50.228;18.936;2023-03-26T17:10:21;97185.72;;;10.79;46.04
40117;BME280;25829;50.228;18.936;2023-03-26T17:16:47;97187.28;;;10.63;46.75
40117;BME280;25829;50.228;18.936;2023-03-26T17:20:31;97186.97;;;10.59;46.59
40117;BME280;25829;50.228;18.936;2023-03-26T17:24:07;97172.00;;;10.48;46.59
40117;BME280;25829;50.228;18.936;2023-03-26T17:27:45;97187.41;;;10.40;46.74
40117;BME280;25829;50.228;18.936;2023-03-26T17:33:50;97190.09;;;10.28;47.36
40117;BME280;25829;50.228;18.936;2023-03-26T17:36:55;97191.94;;;10.27;47.58
40117;BME280;25829;50.228;18.936;2023-03-26T17:43:06;97190.16;;;10.16;47.76
40117;BME280;25829;50.228;18.936;2023-03-26T17:46:33;97192.72;;;10.11;47.87
40117;BME280;25829;50.228;18.936;2023-03-26T17:49:35;97196.03;;;10.06;48.47
40117;BME280;25829;50.228;18.936;2023-03-26T17:53:00;97196.03;;;10.06;48.39
40117;BME280;25829;50.228;18.936;2023-03-26T17:56:10;97190.09;;;9.99;48.62
40117;BME280;25829;50.228;18.936;2023-03-26T17:59:18;97199.75;;;9.94;48.87
40117;BME280;25829;50.228;18.936;2023-03-26T18:02:37;97194.16;;;9.90;49.25
40117;BME280;25829;50.228;18.936;2023-03-26T18:05:41;97192.44;;;9.84;49.33
40117;BME280;25829;50.228;18.936;2023-03-26T18:18:59;97197.13;;;9.82;49.29
40117;BME280;25829;50.228;18.936;2023-03-26T18:22:05;97197.38;;;9.80;49.55
40117;BME280;25829;50.228;18.936;2023-03-26T18:25:26;97192.91;;;9.81;49.61
40117;BME280;25829;50.228;18.936;2023-03-26T18:28:34;97197.13;;;9.82;49.59
40117;BME280;25829;50.228;18.936;2023-03-26T18:31:41;97188.44;;;9.81;49.53
40117;BME280;25829;50.228;18.936;2023-03-26T18:34:57;97187.19;;;9.84;49.70
40117;BME280;25829;50.228;18.936;2023-03-26T18:37:58;97200.56;;;9.82;49.52
40117;BME280;25829;50.228;18.936;2023-03-26T18:40:59;97195.53;;;9.81;49.65
40117;BME280;25829;50.228;18.936;2023-03-26T18:44:04;97194.50;;;9.82;49.71
40117;BME280;25829;50.228;18.936;2023-03-26T18:47:07;97194.75;;;9.80;49.78
40117;BME280;25829;50.228;18.936;2023-03-26T18:50:14;97196.59;;;9.80;49.64
40117;BME280;25829;50.228;18.936;2023-03-26T18:53:23;97197.13;;;9.82;49.75
40117;BME280;25829;50.228;18.936;2023-03-26T18:56:36;97198.19;;;9.81;49.88
40117;BME280;25829;50.228;18.936;2023-03-26T18:59:44;97200.69;;;9.76;50.31
40117;BME280;25829;50.228;18.936;2023-03-26T19:02:48;97189.38;;;9.75;51.01
40117;BME280;25829;50.228;18.936;2023-03-26T19:05:54;97209.56;;;9.70;51.56
40117;BME280;25829;50.228;18.936;2023-03-26T19:08:56;97199.13;;;9.63;51.70
40117;BME280;25829;50.228;18.936;2023-03-26T19:12:07;97193.06;;;9.62;52.13
40117;BME280;25829;50.228;18.936;2023-03-26T19:15:15;97192.25;;;9.62;52.18
40117;BME280;25829;50.228;18.936;2023-03-26T19:18:23;97189.16;;;9.65;52.35
40117;BME280;25829;50.228;18.936;2023-03-26T19:21:25;97188.94;;;9.67;52.39
40117;BME280;25829;50.228;18.936;2023-03-26T19:24:26;97185.28;;;9.68;52.22
40117;BME280;25829;50.228;18.936;2023-03-26T19:27:27;97180.00;;;9.68;52.26
40117;BME280;25829;50.228;18.936;2023-03-26T19:30:30;97178.97;;;9.69;52.36
40117;BME280;25829;50.228;18.936;2023-03-26T19:33:35;97175.31;;;9.70;52.26
40117;BME280;25829;50.228;18.936;2023-03-26T19:40:22;97167.22;;;9.59;52.35
40117;BME280;25829;50.228;18.936;2023-03-26T19:43:29;97173.16;;;9.55;52.93
40117;BME280;25829;50.228;18.936;2023-03-26T19:46:33;97176.94;;;9.47;53.27
40117;BME280;25829;50.228;18.936;2023-03-26T19:49:59;97169.50;;;9.44;54.38
40117;BME280;25829;50.228;18.936;2023-03-26T19:54:15;97168.38;;;9.40;54.77
40117;BME280;25829;50.228;18.936;2023-03-26T19:57:16;97173.06;;;9.38;55.76
40117;BME280;25829;50.228;18.936;2023-03-26T20:00:17;97163.03;;;9.35;56.55
40117;BME280;25829;50.228;18.936;2023-03-26T20:03:24;97152.81;;;9.27;57.13
40117;BME280;25829;50.228;18.936;2023-03-26T20:06:27;97161.50;;;9.15;57.92
40117;BME280;25829;50.228;18.936;2023-03-26T20:09:34;97160.03;;;9.08;58.63
40117;BME280;25829;50.228;18.936;2023-03-26T20:12:38;97155.44;;;9.03;59.41
40117;BME280;25829;50.228;18.936;2023-03-26T20:15:39;97151.69;;;8.99;60.03
40117;BME280;25829;50.228;18.936;2023-03-26T20:18:40;97143.91;;;8.92;60.47
40117;BME280;25829;50.228;18.936;2023-03-26T20:21:47;97140.38;;;8.87;61.19
40117;BME280;25829;50.228;18.936;2023-03-26T20:24:50;97134.19;;;8.81;61.83
40117;BME280;25829;50.228;18.936;2023-03-26T20:27:51;97128.81;;;8.76;62.53
40117;BME280;25829;50.228;18.936;2023-03-26T20:30:54;97122.97;;;8.74;62.49
40117;BME280;25829;50.228;18.936;2023-03-26T21:08:01;97066.81;;;7.49;69.94
40117;BME280;25829;50.228;18.936;2023-03-26T21:11:23;97066.84;;;7.31;69.42
40117;BME280;25829;50.228;18.936;2023-03-26T21:14:36;97064.34;;;7.36;69.56
40117;BME280;25829;50.228;18.936;2023-03-26T21:17:40;97059.38;;;7.46;69.19
40117;BME280;25829;50.228;18.936;2023-03-26T21:20:44;97062.88;;;7.59;69.03
40117;BME280;25829;50.228;18.936;2023-03-26T21:23:58;97061.31;;;7.69;68.82
40117;BME280;25829;50.228;18.936;2023-03-26T21:27:13;97070.47;;;7.79;68.04
40117;BME280;25829;50.228;18.936;2023-03-26T21:30:17;97075.88;;;7.84;68.96
40117;BME280;25829;50.228;18.936;2023-03-26T21:33:17;97064.69;;;7.88;68.58
40117;BME280;25829;50.228;18.936;2023-03-26T21:36:19;97062.06;;;7.77;68.58
40117;BME280;25829;50.228;18.936;2023-03-26T21:39:20;97077.84;;;7.70;69.20
40117;BME280;25829;50.228;18.936;2023-03-26T21:42:21;97075.97;;;7.77;69.20
40117;BME280;25829;50.228;18.936;2023-03-26T21:45:26;97071.66;;;7.83;69.00
40117;BME280;25829;50.228;18.936;2023-03-26T21:48:28;97061.88;;;7.90;68.21
40117;BME280;25829;50.228;18.936;2023-03-26T21:51:29;97056.97;;;7.93;68.12
40117;BME280;25829;50.228;18.936;2023-03-26T21:54:44;97065.28;;;7.90;68.36
40117;BME280;25829;50.228;18.936;2023-03-26T21:59:07;97065.88;;;7.74;69.28
40117;BME280;25829;50.228;18.936;2023-03-26T22:12:18;97045.16;;;7.54;69.85
40117;BME280;25829;50.228;18.936;2023-03-26T22:16:14;97050.75;;;7.58;69.73
40117;BME280;25829;50.228;18.936;2023-03-26T22:20:25;97052.72;;;7.62;69.62
40117;BME280;25829;50.228;18.936;2023-03-26T22:24:54;97058.44;;;7.71;69.53
40117;BME280;25829;50.228;18.936;2023-03-26T22:29:06;97055.38;;;7.74;69.29
40117;BME280;25829;50.228;18.936;2023-03-26T22:33:24;97046.47;;;7.75;68.92
40117;BME280;25829;50.228;18.936;2023-03-26T22:38:24;97048.19;;;7.69;69.49
40117;BME280;25829;50.228;18.936;2023-03-26T22:43:01;97039.28;;;7.70;69.59
40117;BME280;25829;50.228;18.936;2023-03-26T22:46:50;97034.81;;;7.71;69.31
40117;BME280;25829;50.228;18.936;2023-03-26T22:50:13;97029.38;;;7.72;69.85
40117;BME280;25829;50.228;18.936;2023-03-26T22:53:17;97018.47;;;7.76;69.58